createdAt,value
2022-08-13T00:01:01.035Z,74.26
2022-08-13T00:03:59.447Z,75.10
2022-08-13T00:06:48.433Z,75.03
2022-08-13T00:09:33.887Z,77.30
2022-08-13T00:12:43.220Z,76.92
2022-08-13T00:15:17.826Z,74.05
2022-08-13T00:18:01.745Z,75.06
2022-08-13T00:20:36.687Z,77.17
2022-08-13T00:23:20.915Z,78.63
2022-08-13T00:25:51.794Z,76.38
2022-08-13T00:29:25.907Z,77.09
2022-08-13T00:31:53.894Z,75.93
2022-08-13T00:34:22.311Z,78.59
2022-08-13T00:37:06.133Z,78.87
2022-08-13T00:40:16.159Z,76.64
2022-08-13T00:42:23.516Z,72.52
2022-08-13T00:44:52.855Z,75.91
2022-08-13T00:47:38.211Z,75.49
2022-08-13T00:50:07.329Z,78.05
2022-08-13T00:52:42.347Z,81.11
2022-08-13T00:55:12.886Z,80.23
2022-08-13T00:57:40.952Z,82.25
2022-08-13T01:00:13.563Z,79.90
2022-08-13T01:02:42.979Z,84.62
2022-08-13T01:05:27.862Z,80.21
2022-08-13T01:08:00.267Z,80.18
2022-08-13T01:10:28.633Z,77.65
2022-08-13T01:12:57.466Z,81.08
2022-08-13T01:15:36.173Z,81.79
2022-08-13T01:18:15.831Z,77.65
2022-08-13T01:20:47.514Z,79.93
2022-08-13T01:23:24.228Z,81.11
2022-08-13T01:26:09.343Z,83.72
2022-08-13T01:28:42.234Z,83.05
2022-08-13T01:31:18.441Z,83.51
2022-08-13T01:33:53.063Z,83.95
2022-08-13T01:36:41.690Z,83.34
2022-08-13T01:39:18.218Z,83.59
2022-08-13T01:41:53.869Z,84.15
2022-08-13T01:44:26.213Z,86.63
2022-08-13T01:47:18.553Z,85.29
2022-08-13T01:50:11.244Z,87.52
2022-08-13T01:52:42.979Z,86.03
2022-08-13T01:55:13.666Z,83.69
2022-08-13T01:57:51.457Z,84.70
2022-08-13T02:00:27.008Z,84.69
2022-08-13T02:02:56.802Z,84.28
2022-08-13T02:06:21.600Z,83.23
2022-08-13T02:08:20.305Z,83.28
2022-08-13T02:11:49.701Z,79.70
2022-08-13T02:14:23.067Z,85.54
2022-08-13T02:16:53.764Z,87.42
2022-08-13T02:19:27.615Z,88.34
2022-08-13T02:22:02.275Z,85.33
2022-08-13T02:24:31.359Z,88.47
2022-08-13T02:27:01.172Z,84.45
2022-08-13T02:29:33.228Z,82.89
2022-08-13T02:32:14.548Z,87.68
2022-08-13T02:34:47.399Z,87.65
2022-08-13T02:37:23.847Z,84.77
2022-08-13T02:40:27.125Z,87.16
2022-08-13T02:42:57.192Z,88.44
2022-08-13T02:45:29.412Z,88.38
2022-08-13T02:48:01.336Z,87.08
2022-08-13T02:50:42.750Z,89.12
2022-08-13T02:53:26.766Z,89.38
2022-08-13T02:56:01.139Z,85.67
2022-08-13T02:58:29.151Z,87.73
2022-08-13T03:00:59.158Z,88.22
2022-08-13T03:03:28.311Z,85.72
2022-08-13T03:05:59.672Z,86.44
2022-08-13T03:08:40.068Z,85.93
2022-08-13T03:11:14.190Z,87.57
2022-08-13T03:13:46.052Z,86.77
2022-08-13T03:16:19.511Z,85.75
2022-08-13T03:18:52.275Z,88.62
2022-08-13T03:21:42.251Z,85.95
2022-08-13T03:24:21.756Z,88.69
2022-08-13T03:26:54.637Z,86.51
2022-08-13T03:29:57.921Z,89.76
2022-08-13T03:32:15.284Z,88.64
2022-08-13T03:34:43.962Z,87.50
2022-08-13T03:37:13.813Z,87.80
2022-08-13T03:39:43.561Z,87.90
2022-08-13T03:42:12.987Z,89.01
2022-08-13T03:44:48.489Z,85.89
2022-08-13T03:47:31.423Z,88.26
2022-08-13T03:50:00.662Z,88.81
2022-08-13T03:52:35.912Z,87.13
2022-08-13T03:55:09.517Z,87.63
2022-08-13T03:58:02.542Z,87.80
2022-08-13T04:00:29.634Z,87.55
2022-08-13T04:03:01.482Z,88.19
2022-08-13T04:06:30.868Z,86.49
2022-08-13T04:09:03.325Z,87.89
2022-08-13T04:11:31.356Z,87.13
2022-08-13T04:14:36.997Z,87.86
2022-08-13T04:16:52.152Z,88.53
2022-08-13T04:19:21.417Z,87.96
2022-08-13T04:21:52.667Z,88.40
2022-08-13T04:24:21.315Z,88.68
2022-08-13T04:26:55.626Z,86.51
2022-08-13T04:29:23.612Z,86.62
2022-08-13T04:31:55.680Z,86.92
2022-08-13T04:34:33.618Z,87.85
2022-08-13T04:37:10.022Z,89.32
2022-08-13T04:40:07.178Z,86.94
2022-08-13T04:42:51.388Z,84.37
2022-08-13T04:45:23.828Z,86.42
2022-08-13T04:47:54.698Z,85.28
2022-08-13T04:50:28.042Z,86.90
2022-08-13T04:52:57.187Z,85.77
2022-08-13T04:55:25.973Z,85.72
2022-08-13T04:58:05.488Z,87.45
2022-08-13T05:00:35.908Z,85.08
2022-08-13T05:03:12.703Z,87.73
2022-08-13T05:05:46.916Z,88.67
2022-08-13T05:08:16.694Z,87.96
2022-08-13T05:10:45.645Z,86.62
2022-08-13T05:13:25.607Z,87.96
2022-08-13T05:16:00.817Z,88.01
2022-08-13T05:18:32.976Z,84.86
2022-08-13T05:21:05.672Z,86.73
2022-08-13T05:26:09.067Z,87.58
2022-08-13T05:26:35.647Z,87.27
2022-08-13T05:31:54.710Z,88.33
2022-08-13T05:34:26.223Z,86.56
2022-08-13T05:38:13.497Z,89.35
2022-08-13T05:39:49.455Z,91.26
2022-08-13T05:42:26.840Z,90.11
2022-08-13T05:44:56.911Z,88.24
2022-08-13T05:47:26.299Z,87.27
2022-08-13T05:49:58.326Z,90.18
2022-08-13T05:52:40.165Z,87.76
2022-08-13T05:56:10.338Z,84.31
2022-08-13T05:57:59.342Z,86.14
2022-08-13T06:00:44.792Z,85.52
2022-08-13T06:04:16.385Z,89.61
2022-08-13T06:06:23.810Z,90.32
2022-08-13T06:08:59.101Z,90.65
2022-08-13T06:12:07.041Z,89.97
2022-08-13T06:14:22.055Z,92.32
2022-08-13T06:16:55.641Z,89.66
2022-08-13T06:19:26.838Z,91.67
2022-08-13T06:22:02.018Z,81.65
2022-08-13T06:24:34.003Z,80.09
2022-08-13T06:27:14.396Z,77.31
2022-08-13T06:30:45.387Z,74.19
2022-08-13T06:34:05.911Z,72.66
2022-08-13T06:36:12.997Z,73.22
2022-08-13T06:38:50.562Z,70.07
2022-08-13T06:41:23.343Z,70.15
2022-08-13T06:44:01.218Z,70.83
2022-08-13T06:46:32.610Z,69.92
2022-08-13T06:49:04.098Z,70.12
2022-08-13T06:51:37.892Z,67.83
2022-08-13T06:54:23.861Z,68.66
2022-08-13T06:57:07.385Z,67.05
2022-08-13T07:00:11.060Z,64.48
2022-08-13T07:02:35.458Z,62.83
2022-08-13T07:05:07.367Z,63.33
2022-08-13T07:07:38.455Z,62.55
2022-08-13T07:10:07.275Z,64.41
2022-08-13T07:12:38.414Z,62.49
2022-08-13T07:15:17.864Z,61.45
2022-08-13T07:18:55.201Z,61.39
2022-08-13T07:21:26.272Z,61.09
2022-08-13T07:24:40.408Z,60.10
2022-08-13T07:27:05.255Z,60.15
2022-08-13T07:29:51.908Z,60.84
2022-08-13T07:32:28.002Z,58.92
2022-08-13T07:34:59.933Z,58.89
2022-08-13T07:37:28.801Z,59.18
2022-08-13T07:39:57.393Z,57.58
2022-08-13T07:42:30.469Z,57.95
2022-08-13T07:46:23.068Z,55.75
2022-08-13T07:48:27.087Z,57.34
2022-08-13T07:50:41.075Z,55.74
2022-08-13T07:53:14.541Z,55.09
2022-08-13T07:56:07.120Z,56.15
2022-08-13T07:58:34.621Z,55.87
2022-08-13T08:01:06.122Z,55.28
2022-08-13T08:03:51.582Z,55.60
2022-08-13T08:06:29.059Z,55.04
2022-08-13T08:08:59.728Z,54.08
2022-08-13T08:11:51.101Z,53.24
2022-08-13T08:14:30.521Z,54.77
2022-08-13T08:18:13.825Z,53.26
2022-08-13T08:20:18.284Z,53.64
2022-08-13T08:22:42.419Z,52.74
2022-08-13T08:25:20.230Z,52.26
2022-08-13T08:27:52.379Z,52.41
2022-08-13T08:30:50.648Z,51.95
2022-08-13T08:33:53.668Z,52.98
2022-08-13T08:36:21.078Z,51.68
2022-08-13T08:39:38.444Z,50.18
2022-08-13T08:42:30.057Z,50.35
2022-08-13T08:45:00.235Z,49.43
2022-08-13T08:47:47.969Z,50.36
2022-08-13T08:50:27.311Z,49.92
2022-08-13T08:53:34.368Z,49.89
2022-08-13T08:56:07.289Z,50.40
2022-08-13T08:58:38.829Z,48.78
2022-08-13T09:01:13.387Z,49.21
2022-08-13T09:03:49.787Z,48.74
2022-08-13T09:06:33.670Z,46.94
2022-08-13T09:09:02.950Z,47.98
2022-08-13T09:11:35.477Z,49.31
2022-08-13T09:14:11.483Z,51.12
2022-08-13T09:16:42.722Z,46.36
2022-08-13T09:19:22.283Z,47.21
2022-08-13T09:22:03.465Z,48.74
2022-08-13T09:24:32.295Z,47.06
2022-08-13T09:27:00.851Z,46.65
2022-08-13T09:29:28.779Z,46.59
2022-08-13T09:32:08.729Z,48.31
2022-08-13T09:34:40.687Z,46.98
2022-08-13T09:37:11.708Z,45.89
2022-08-13T09:39:44.134Z,45.54
2022-08-13T09:42:22.662Z,44.65
2022-08-13T09:44:54.895Z,44.13
2022-08-13T09:48:34.191Z,44.23
2022-08-13T09:50:11.329Z,45.29
2022-08-13T09:52:41.997Z,44.70
2022-08-13T09:55:12.860Z,44.23
2022-08-13T09:58:02.038Z,44.00
2022-08-13T10:00:32.226Z,44.10
2022-08-13T10:03:04.815Z,42.32
2022-08-13T10:05:37.317Z,43.31
2022-08-13T10:08:09.491Z,42.21
2022-08-13T10:10:38.564Z,42.77
2022-08-13T10:13:06.373Z,42.41
2022-08-13T10:15:35.088Z,43.63
2022-08-13T10:18:09.825Z,44.14
2022-08-13T10:20:40.881Z,43.62
2022-08-13T10:23:13.039Z,42.44
2022-08-13T10:25:51.601Z,42.06
2022-08-13T10:28:30.506Z,41.61
2022-08-13T10:31:48.571Z,42.90
2022-08-13T10:33:51.749Z,42.13
2022-08-13T10:36:20.414Z,41.19
2022-08-13T10:38:52.467Z,40.98
2022-08-13T10:41:22.093Z,42.22
2022-08-13T10:43:56.791Z,41.51
2022-08-13T10:46:27.757Z,40.42
2022-08-13T10:48:59.541Z,42.08
2022-08-13T10:51:30.184Z,41.81
2022-08-13T10:54:02.653Z,41.07
2022-08-13T10:56:34.114Z,41.69
2022-08-13T10:59:03.426Z,40.94
2022-08-13T11:01:33.167Z,40.53
2022-08-13T11:04:04.866Z,40.67
2022-08-13T11:06:36.453Z,41.18
2022-08-13T11:09:23.791Z,39.15
2022-08-13T11:12:00.128Z,38.96
2022-08-13T11:14:38.404Z,38.87
2022-08-13T11:17:08.887Z,39.29
2022-08-13T11:19:49.763Z,40.19
2022-08-13T11:22:27.182Z,40.37
2022-08-13T11:24:58.164Z,38.64
2022-08-13T11:27:30.402Z,38.60
2022-08-13T11:30:31.435Z,39.20
2022-08-13T11:33:05.609Z,38.88
2022-08-13T11:35:34.571Z,37.54
2022-08-13T11:38:07.664Z,37.41
2022-08-13T11:40:39.412Z,37.50
2022-08-13T11:43:12.843Z,35.31
2022-08-13T11:45:49.121Z,35.62
2022-08-13T11:48:19.463Z,37.63
2022-08-13T11:50:58.874Z,37.53
2022-08-13T11:53:29.663Z,37.26
2022-08-13T11:56:04.441Z,37.00
2022-08-13T11:58:47.730Z,37.08
2022-08-13T12:01:25.133Z,36.27
2022-08-13T12:06:42.280Z,37.17
2022-08-13T12:09:24.085Z,37.67
2022-08-13T12:12:11.209Z,38.15
2022-08-13T12:14:49.925Z,37.25
2022-08-13T12:17:48.810Z,40.09
2022-08-13T12:20:19.246Z,39.22
2022-08-13T12:22:51.375Z,39.13
2022-08-13T12:25:34.315Z,39.66
2022-08-13T12:28:21.118Z,39.62
2022-08-13T12:30:51.236Z,39.17
2022-08-13T12:33:19.170Z,39.74
2022-08-13T12:35:56.979Z,39.10
2022-08-13T12:38:30.262Z,36.91
2022-08-13T12:41:00.156Z,36.74
2022-08-13T12:44:04.931Z,35.99
2022-08-13T12:46:32.786Z,36.27
2022-08-13T12:49:02.523Z,35.66
2022-08-13T12:51:40.530Z,37.07
2022-08-13T12:54:57.730Z,36.99
2022-08-13T12:57:27.018Z,35.47
2022-08-13T13:00:02.709Z,34.48
2022-08-13T13:02:31.365Z,34.07
2022-08-13T13:05:15.615Z,37.05
2022-08-13T13:08:01.679Z,36.25
2022-08-13T13:10:32.899Z,35.78
2022-08-13T13:13:02.260Z,33.19
2022-08-13T13:15:38.633Z,32.40
2022-08-13T13:18:33.759Z,31.66
2022-08-13T13:21:05.123Z,29.70
2022-08-13T13:23:39.538Z,28.96
2022-08-13T13:26:25.324Z,27.35
2022-08-13T13:28:55.387Z,27.85
2022-08-13T13:31:26.903Z,27.53
2022-08-13T13:34:12.507Z,28.70
2022-08-13T13:36:40.480Z,29.00
2022-08-13T13:39:21.811Z,29.04
2022-08-13T13:41:55.257Z,30.00
2022-08-13T13:44:42.695Z,30.71
2022-08-13T13:47:12.178Z,31.46
2022-08-13T13:49:43.943Z,31.45
2022-08-13T13:52:12.148Z,33.45
2022-08-13T13:54:57.518Z,32.48
2022-08-13T13:57:49.475Z,33.18
2022-08-13T14:00:18.126Z,34.75
2022-08-13T14:02:54.020Z,32.99
2022-08-13T14:06:29.160Z,31.81
2022-08-13T14:08:58.316Z,30.67
2022-08-13T14:11:29.450Z,28.29
2022-08-13T14:13:57.791Z,27.35
2022-08-13T14:16:25.542Z,25.48
2022-08-13T14:18:55.363Z,27.72
2022-08-13T14:21:24.519Z,27.22
2022-08-13T14:23:53.694Z,26.99
2022-08-13T14:26:24.184Z,26.33
2022-08-13T14:28:53.581Z,26.55
2022-08-13T14:31:24.581Z,25.51
2022-08-13T14:33:58.657Z,27.07
2022-08-13T14:36:31.151Z,26.66
2022-08-13T14:39:02.616Z,26.77
2022-08-13T14:41:42.666Z,24.83
2022-08-13T14:44:34.215Z,27.26
2022-08-13T14:46:59.218Z,26.15
2022-08-13T14:49:36.259Z,28.31
2022-08-13T14:52:20.378Z,26.37
2022-08-13T14:54:50.940Z,26.82
2022-08-13T14:57:33.328Z,26.08
2022-08-13T15:00:08.826Z,27.10
2022-08-13T15:02:50.638Z,26.72
2022-08-13T15:05:41.313Z,29.14
2022-08-13T15:08:29.584Z,26.69
2022-08-13T15:11:03.682Z,27.56
2022-08-13T15:13:54.400Z,29.64
2022-08-13T15:16:32.791Z,28.99
2022-08-13T15:19:16.908Z,28.60
2022-08-13T15:21:50.908Z,26.81
2022-08-13T15:24:39.908Z,26.47
2022-08-13T15:27:26.768Z,26.78
2022-08-13T15:29:55.552Z,25.46
2022-08-13T15:32:24.484Z,24.68
2022-08-13T15:35:03.896Z,25.02
2022-08-13T15:37:56.318Z,26.11
2022-08-13T15:40:30.426Z,24.92
2022-08-13T15:43:07.532Z,25.43
2022-08-13T15:45:38.304Z,26.61
2022-08-13T15:48:18.060Z,25.72
2022-08-13T15:50:50.613Z,25.70
2022-08-13T15:54:20.037Z,25.64
2022-08-13T15:57:11.467Z,25.51
2022-08-13T15:59:46.844Z,26.97
2022-08-13T16:02:47.957Z,26.24
2022-08-13T16:05:10.304Z,25.25
2022-08-13T16:07:39.651Z,26.06
2022-08-13T16:10:09.379Z,26.15
2022-08-13T16:12:38.829Z,28.06
2022-08-13T16:15:12.357Z,26.54
2022-08-13T16:17:42.290Z,28.04
2022-08-13T16:20:11.935Z,26.84
2022-08-13T16:22:50.561Z,28.39
2022-08-13T16:25:26.400Z,29.53
2022-08-13T16:28:00.133Z,31.32
2022-08-13T16:30:33.539Z,27.81
2022-08-13T16:33:07.872Z,26.94
2022-08-13T16:35:48.342Z,26.31
2022-08-13T16:38:18.832Z,26.83
2022-08-13T16:40:50.991Z,30.02
2022-08-13T16:43:23.121Z,29.05
2022-08-13T16:45:52.611Z,28.70
2022-08-13T16:48:29.027Z,28.96
2022-08-13T16:51:01.375Z,29.89
2022-08-13T16:54:35.052Z,28.47
2022-08-13T16:56:18.662Z,28.98
2022-08-13T16:58:50.196Z,27.96
2022-08-13T17:01:19.674Z,30.57
2022-08-13T17:05:09.697Z,28.90
2022-08-13T17:07:17.395Z,29.74
2022-08-13T17:09:47.084Z,29.84
2022-08-13T17:12:19.680Z,30.34
2022-08-13T17:14:49.432Z,32.53
2022-08-13T17:17:19.196Z,33.27
2022-08-13T17:19:59.380Z,33.13
2022-08-13T17:22:32.217Z,32.83
2022-08-13T17:25:02.444Z,35.47
2022-08-13T17:27:32.651Z,33.98
2022-08-13T17:30:07.207Z,34.21
2022-08-13T17:32:39.253Z,38.41
2022-08-13T17:35:17.442Z,38.15
2022-08-13T17:37:58.237Z,38.01
2022-08-13T17:40:34.176Z,40.75
2022-08-13T17:44:09.996Z,39.32
2022-08-13T17:45:57.557Z,40.88
2022-08-13T17:48:36.621Z,42.41
2022-08-13T17:51:18.163Z,45.94
2022-08-13T17:53:50.294Z,45.84
2022-08-13T17:56:19.132Z,43.78
2022-08-13T17:58:47.928Z,46.34
2022-08-13T18:01:22.569Z,47.85
2022-08-13T18:03:57.125Z,46.18
2022-08-13T18:06:28.605Z,48.06
2022-08-13T18:09:03.922Z,53.45
2022-08-13T18:11:37.683Z,49.23
2022-08-13T18:14:13.564Z,53.77
2022-08-13T18:17:02.951Z,52.57
2022-08-13T18:19:37.441Z,54.66
2022-08-13T18:22:05.767Z,52.46
2022-08-13T18:24:34.855Z,57.21
2022-08-13T18:27:04.914Z,60.99
2022-08-13T18:29:57.534Z,57.12
2022-08-13T18:32:27.670Z,57.78
2022-08-13T18:35:01.275Z,55.74
2022-08-13T18:37:29.321Z,59.89
2022-08-13T18:40:08.057Z,60.46
2022-08-13T18:42:46.042Z,61.56
2022-08-13T18:45:57.037Z,56.70
2022-08-13T18:48:15.700Z,59.31
2022-08-13T18:50:51.677Z,60.84
2022-08-13T18:53:31.491Z,63.75
2022-08-13T18:56:04.321Z,62.51
2022-08-13T18:58:34.913Z,62.94
2022-08-13T19:01:06.209Z,66.26
2022-08-13T19:03:40.371Z,66.98
2022-08-13T19:06:29.405Z,67.31
2022-08-13T19:08:57.622Z,67.45
2022-08-13T19:11:31.544Z,64.94
2022-08-13T19:14:00.522Z,67.92
2022-08-13T19:16:28.379Z,63.41
2022-08-13T19:19:00.274Z,68.36
2022-08-13T19:21:51.530Z,65.06
2022-08-13T19:24:28.499Z,62.57
2022-08-13T19:26:57.731Z,68.41
2022-08-13T19:29:27.942Z,70.90
2022-08-13T19:31:55.932Z,72.40
2022-08-13T19:34:30.330Z,73.30
2022-08-13T19:37:02.252Z,71.51
2022-08-13T19:39:45.079Z,72.31
2022-08-13T19:42:24.631Z,71.71
2022-08-13T19:45:06.811Z,69.10
2022-08-13T19:47:58.738Z,69.37
2022-08-13T19:50:29.547Z,67.98
2022-08-13T19:52:59.514Z,69.20
2022-08-13T19:55:54.531Z,69.84
2022-08-13T19:58:19.936Z,69.61
2022-08-13T20:00:53.305Z,70.54
2022-08-13T20:03:24.926Z,72.27
2022-08-13T20:05:56.011Z,71.38
2022-08-13T20:08:35.568Z,73.66
2022-08-13T20:11:07.044Z,72.32
2022-08-13T20:13:54.647Z,71.14
2022-08-13T20:16:24.845Z,72.20
2022-08-13T20:18:55.518Z,70.94
2022-08-13T20:21:43.850Z,70.84
2022-08-13T20:24:35.943Z,72.05
2022-08-13T20:27:17.768Z,72.10
2022-08-13T20:29:57.485Z,71.49
2022-08-13T20:32:32.452Z,73.28
2022-08-13T20:35:01.398Z,74.47
2022-08-13T20:37:47.903Z,73.03
2022-08-13T20:40:21.146Z,73.62
2022-08-13T20:42:52.219Z,76.60
2022-08-13T20:45:23.265Z,74.48
2022-08-13T20:48:04.070Z,75.32
2022-08-13T20:50:34.139Z,74.93
2022-08-13T20:53:14.391Z,74.65
2022-08-13T20:55:45.107Z,74.08
2022-08-13T21:00:40.148Z,74.53
2022-08-13T21:01:16.341Z,74.26
2022-08-13T21:03:46.101Z,72.90
2022-08-13T21:06:17.929Z,74.16
2022-08-13T21:08:56.677Z,74.28
2022-08-13T21:11:41.029Z,73.41
2022-08-13T21:14:14.045Z,75.04
2022-08-13T21:16:42.126Z,76.34
2022-08-13T21:22:03.274Z,72.98
2022-08-13T21:24:36.367Z,72.75
2022-08-13T21:27:15.183Z,73.21
2022-08-13T21:29:57.668Z,72.87
2022-08-13T21:32:33.324Z,74.86
2022-08-13T21:35:01.445Z,74.08
2022-08-13T21:37:32.131Z,73.51
2022-08-13T21:40:02.472Z,73.95
2022-08-13T21:42:38.486Z,73.85
2022-08-13T21:45:14.833Z,74.18
2022-08-13T21:47:46.795Z,74.96
2022-08-13T21:50:17.718Z,73.75
2022-08-13T21:52:53.122Z,76.22
2022-08-13T21:55:26.222Z,73.82
2022-08-13T21:57:54.879Z,74.15
2022-08-13T22:01:28.078Z,76.04
2022-08-13T22:04:02.635Z,77.13
2022-08-13T22:06:34.623Z,77.19
2022-08-13T22:09:04.814Z,78.35
2022-08-13T22:11:37.890Z,76.82
2022-08-13T22:14:09.523Z,77.49
2022-08-13T22:16:37.447Z,78.33
2022-08-13T22:19:05.179Z,76.08
2022-08-13T22:21:33.751Z,78.02
2022-08-13T22:24:07.905Z,78.67
2022-08-13T22:26:37.140Z,77.48
2022-08-13T22:29:22.493Z,78.16
2022-08-13T22:31:52.298Z,78.40
2022-08-13T22:34:49.121Z,78.44
2022-08-13T22:37:08.688Z,77.74
2022-08-13T22:39:38.671Z,79.05
2022-08-13T22:42:18.771Z,80.04
2022-08-13T22:44:48.579Z,79.05
2022-08-13T22:47:17.450Z,79.69
2022-08-13T22:49:47.465Z,81.44
2022-08-13T22:52:19.928Z,80.05
2022-08-13T22:54:48.370Z,82.07
2022-08-13T22:57:18.861Z,81.19
2022-08-13T22:59:47.985Z,81.66
2022-08-13T23:02:16.054Z,82.52
2022-08-13T23:04:44.335Z,84.12
2022-08-13T23:07:14.928Z,83.38
2022-08-13T23:09:44.663Z,83.82
2022-08-13T23:12:14.664Z,85.71
2022-08-13T23:14:45.980Z,85.45
2022-08-13T23:17:15.641Z,84.49
2022-08-13T23:19:45.955Z,85.53
2022-08-13T23:22:23.067Z,85.64
2022-08-13T23:25:00.628Z,85.43
2022-08-13T23:27:29.465Z,84.20
2022-08-13T23:29:59.415Z,86.71
2022-08-13T23:32:29.093Z,86.02
2022-08-13T23:34:57.809Z,86.80
2022-08-13T23:37:27.417Z,87.73
2022-08-13T23:39:56.908Z,87.41
2022-08-13T23:42:25.251Z,87.86
2022-08-13T23:44:53.281Z,88.00
2022-08-13T23:47:24.002Z,87.87
2022-08-13T23:49:53.608Z,88.02
2022-08-13T23:52:29.911Z,89.25
2022-08-13T23:55:02.774Z,90.00
2022-08-13T23:57:32.645Z,89.70
